Time;durP1;ratioP1;P1;durP2;ratioP2;P2;SDS_P1;SDS_P2;PMS_P1;PMS_P2;Temp;Humidity;BMP_temperature;BMP_pressure;BME280_temperature;BME280_humidity;BME280_pressure;Samples;Min_cycle;Max_cycle;Signal;HPM_P1;HPM_P2
2022/07/25 00:01:54;;;;;;;1.20;1.10;;;30.90;40.10;;;;;;5050148;28;20037;-59
2022/07/25 00:04:21;;;;;;;0.82;0.82;;;30.90;40.10;;;;;;5049612;28;20561;-59
2022/07/25 00:06:49;;;;;;;1.63;0.55;;;31.00;40.20;;;;;;5042682;28;20049;-59
2022/07/25 00:09:16;;;;;;;0.98;0.98;;;30.90;40.20;;;;;;5049928;28;20068;-59
2022/07/25 00:11:43;;;;;;;0.80;0.80;;;30.90;40.20;;;;;;5049824;28;20043;-58
2022/07/25 00:14:10;;;;;;;0.93;0.93;;;30.90;40.20;;;;;;5049935;28;20119;-59
2022/07/25 00:16:38;;;;;;;0.40;0.40;;;30.90;40.30;;;;;;5049412;28;20076;-57
2022/07/25 00:19:06;;;;;;;0.95;0.95;;;30.90;40.30;;;;;;5049458;28;20041;-59
2022/07/25 00:21:33;;;;;;;1.02;1.02;;;30.90;40.40;;;;;;5047938;28;20871;-58
2022/07/25 00:24:01;;;;;;;0.82;0.75;;;30.90;40.40;;;;;;5049481;28;20044;-58
2022/07/25 00:26:28;;;;;;;1.55;1.45;;;30.90;40.40;;;;;;5043082;28;20219;-58
2022/07/25 00:28:55;;;;;;;1.38;1.27;;;30.90;40.50;;;;;;5049585;28;20076;-59
2022/07/25 00:31:22;;;;;;;1.17;0.90;;;30.90;40.50;;;;;;5049430;28;20145;-59
2022/07/25 00:33:49;;;;;;;1.35;0.60;;;30.80;40.50;;;;;;5049574;28;20073;-59
2022/07/25 00:36:17;;;;;;;0.93;0.93;;;30.80;40.50;;;;;;5047482;28;20037;-57
2022/07/25 00:38:44;;;;;;;1.02;1.02;;;30.80;40.50;;;;;;5049331;28;20120;-59
2022/07/25 00:41:12;;;;;;;1.15;0.88;;;30.80;40.60;;;;;;5049496;28;20049;-58
2022/07/25 00:43:42;;;;;;;1.20;0.75;;;30.80;40.60;;;;;;5049132;28;20736;-59
2022/07/25 00:46:12;;;;;;;0.82;0.73;;;30.80;40.70;;;;;;5047500;28;20094;-58
2022/07/25 00:48:39;;;;;;;0.98;0.98;;;30.80;40.70;;;;;;5049172;28;20049;-58
2022/07/25 00:51:07;;;;;;;2.10;0.60;;;30.80;40.70;;;;;;5047608;28;20531;-58
2022/07/25 00:53:36;;;;;;;1.27;1.20;;;30.80;40.80;;;;;;5049167;28;20049;-59
2022/07/25 00:56:04;;;;;;;0.65;0.65;;;30.80;40.80;;;;;;5049136;28;20141;-58
2022/07/25 00:58:31;;;;;;;0.77;0.77;;;30.80;40.80;;;;;;5049226;28;20036;-59
2022/07/25 01:00:58;;;;;;;0.98;0.73;;;30.70;40.80;;;;;;5042502;28;20072;-59
2022/07/25 01:03:25;;;;;;;1.35;1.27;;;30.70;40.80;;;;;;5047958;28;20047;-59
2022/07/25 01:05:53;;;;;;;1.10;1.10;;;30.70;40.80;;;;;;5048075;28;20041;-59
2022/07/25 01:08:21;;;;;;;2.20;0.57;;;30.70;40.80;;;;;;5048822;28;20042;-58
2022/07/25 01:10:49;;;;;;;0.95;0.60;;;30.70;40.90;;;;;;5048773;28;20521;-59
2022/07/25 01:13:17;;;;;;;0.75;0.73;;;30.70;40.90;;;;;;5048811;28;20482;-59
2022/07/25 01:15:44;;;;;;;1.05;0.95;;;30.70;40.90;;;;;;5048481;28;20051;-59
2022/07/25 01:18:11;;;;;;;1.52;1.10;;;30.70;40.90;;;;;;5048325;28;20124;-58
2022/07/25 01:20:39;;;;;;;0.70;0.70;;;30.70;41.00;;;;;;5047968;28;20084;-58
2022/07/25 01:23:06;;;;;;;0.50;0.50;;;30.70;41.00;;;;;;5047762;28;20128;-59
2022/07/25 01:25:33;;;;;;;0.70;0.70;;;30.70;41.00;;;;;;5046040;28;20174;-58
2022/07/25 01:28:00;;;;;;;1.15;1.13;;;30.70;41.00;;;;;;5048263;28;20068;-58
2022/07/25 01:30:27;;;;;;;1.13;1.13;;;30.60;41.00;;;;;;5048723;28;20128;-58
2022/07/25 01:32:54;;;;;;;1.23;1.10;;;30.60;41.00;;;;;;5048472;28;20067;-59
2022/07/25 01:35:21;;;;;;;0.63;0.63;;;30.60;41.00;;;;;;5048381;28;20628;-58
2022/07/25 01:37:50;;;;;;;0.75;0.75;;;30.60;41.10;;;;;;5048643;28;20084;-59
2022/07/25 01:40:17;;;;;;;1.65;0.93;;;30.60;41.10;;;;;;5042001;28;20069;-59
2022/07/25 01:42:45;;;;;;;0.85;0.85;;;30.60;41.10;;;;;;5048122;28;20525;-59
2022/07/25 01:45:13;;;;;;;0.80;0.80;;;30.60;41.10;;;;;;5048145;28;20144;-59
2022/07/25 01:47:40;;;;;;;1.10;0.70;;;30.60;41.20;;;;;;5048288;28;20067;-57
2022/07/25 01:50:09;;;;;;;0.68;0.68;;;30.60;41.20;;;;;;5047828;28;20076;-57
2022/07/25 01:52:36;;;;;;;2.40;1.42;;;30.60;41.20;;;;;;5047830;28;20059;-57
2022/07/25 01:55:05;;;;;;;0.98;0.80;;;30.60;41.30;;;;;;5047561;28;20450;-57
2022/07/25 01:57:32;;;;;;;1.40;0.70;;;30.60;41.30;;;;;;5044920;28;20067;-57
2022/07/25 01:59:59;;;;;;;1.10;1.10;;;30.50;41.30;;;;;;5041436;28;20049;-57
2022/07/25 02:02:27;;;;;;;0.90;0.90;;;30.50;41.30;;;;;;5047468;28;20033;-57
2022/07/25 02:04:54;;;;;;;1.10;1.10;;;30.50;41.40;;;;;;5047881;28;20055;-57
2022/07/25 02:07:21;;;;;;;0.85;0.85;;;30.50;41.40;;;;;;5047629;28;20041;-58
2022/07/25 02:09:49;;;;;;;0.45;0.45;;;30.50;41.40;;;;;;5046473;28;20130;-57
2022/07/25 02:12:18;;;;;;;0.88;0.77;;;30.50;41.50;;;;;;5041101;28;20037;-58
2022/07/25 02:14:45;;;;;;;3.00;0.68;;;30.50;41.50;;;;;;5047734;28;20037;-58
2022/07/25 02:17:12;;;;;;;0.73;0.63;;;30.40;41.50;;;;;;5047192;28;20043;-57
2022/07/25 02:19:39;;;;;;;0.82;0.82;;;30.40;41.50;;;;;;5047821;28;20094;-58
2022/07/25 02:22:06;;;;;;;0.65;0.50;;;30.40;41.50;;;;;;5047686;28;20037;-58
2022/07/25 02:24:35;;;;;;;0.98;0.73;;;30.40;41.60;;;;;;5047415;28;20156;-57
2022/07/25 02:27:02;;;;;;;0.90;0.90;;;30.40;41.60;;;;;;5047621;28;20076;-58
2022/07/25 02:29:31;;;;;;;0.68;0.68;;;30.40;41.60;;;;;;5047590;28;20507;-58
2022/07/25 02:31:58;;;;;;;0.70;0.68;;;30.40;41.70;;;;;;5047171;28;20045;-57
2022/07/25 02:34:25;;;;;;;0.60;0.52;;;30.40;41.70;;;;;;5047645;28;20119;-58
2022/07/25 02:36:52;;;;;;;0.90;0.90;;;30.40;41.70;;;;;;5047610;28;20483;-58
2022/07/25 02:39:20;;;;;;;1.05;0.60;;;30.40;41.70;;;;;;5047767;28;20404;-57
2022/07/25 02:41:47;;;;;;;0.80;0.80;;;30.30;41.70;;;;;;5047654;28;20033;-58
2022/07/25 02:44:14;;;;;;;0.85;0.85;;;30.30;41.80;;;;;;5047401;28;20143;-58
2022/07/25 02:46:42;;;;;;;0.65;0.65;;;30.30;41.80;;;;;;5047226;28;20041;-57
2022/07/25 02:49:09;;;;;;;1.52;1.00;;;30.30;42.50;;;;;;5046962;28;20077;-58
2022/07/25 02:51:36;;;;;;;0.65;0.65;;;30.30;41.90;;;;;;5047418;28;20039;-58
2022/07/25 02:54:03;;;;;;;1.40;0.30;;;30.30;41.90;;;;;;5047286;28;20087;-58
2022/07/25 02:56:32;;;;;;;2.60;0.85;;;30.30;41.90;;;;;;5047168;28;20136;-57
2022/07/25 02:58:59;;;;;;;0.82;0.82;;;30.20;41.90;;;;;;5047311;28;20045;-58
2022/07/25 03:01:26;;;;;;;0.60;0.50;;;30.20;41.90;;;;;;5046934;28;20048;-58
2022/07/25 03:03:54;;;;;;;0.45;0.45;;;30.20;41.90;;;;;;5040097;28;20124;-58
2022/07/25 03:06:21;;;;;;;1.10;1.10;;;30.20;42.00;;;;;;5047298;28;20041;-58
2022/07/25 03:08:48;;;;;;;0.77;0.77;;;30.20;42.00;;;;;;5046668;28;20033;-58
2022/07/25 03:11:16;;;;;;;0.77;0.50;;;30.20;42.00;;;;;;5047194;28;20041;-57
2022/07/25 03:13:43;;;;;;;1.55;0.45;;;30.20;42.00;;;;;;5046862;28;20037;-57
2022/07/25 03:16:10;;;;;;;1.70;0.40;;;30.10;42.00;;;;;;5050851;28;20449;-58
2022/07/25 03:18:37;;;;;;;0.45;0.40;;;30.10;42.00;;;;;;5048757;28;20145;-54
2022/07/25 03:21:06;;;;;;;1.05;0.47;;;30.10;42.00;;;;;;5051001;28;20037;-58
2022/07/25 03:23:33;;;;;;;1.85;0.70;;;30.10;42.00;;;;;;5050726;28;20041;-57
2022/07/25 03:26:00;;;;;;;0.30;0.30;;;30.10;42.00;;;;;;5050842;28;20045;-58
2022/07/25 03:28:27;;;;;;;0.40;0.40;;;30.10;42.10;;;;;;5050995;28;20068;-58
2022/07/25 03:30:55;;;;;;;0.57;0.52;;;30.10;42.10;;;;;;5043721;28;20049;-57
2022/07/25 03:33:22;;;;;;;2.38;0.82;;;30.10;42.10;;;;;;5050374;28;20103;-58
2022/07/25 03:35:49;;;;;;;0.60;0.60;;;30.00;42.10;;;;;;5050689;28;20048;-58
2022/07/25 03:38:17;;;;;;;1.67;0.50;;;30.00;42.00;;;;;;5050395;28;20094;-58
2022/07/25 03:40:44;;;;;;;1.17;0.30;;;30.00;42.00;;;;;;5050582;28;20051;-58
2022/07/25 03:43:11;;;;;;;2.65;0.20;;;30.00;42.00;;;;;;5050624;28;20499;-58
2022/07/25 03:45:39;;;;;;;0.50;0.50;;;30.00;42.00;;;;;;5050066;28;20047;-58
2022/07/25 03:48:06;;;;;;;1.67;0.52;;;30.00;42.00;;;;;;5048855;28;20041;-58
2022/07/25 03:50:33;;;;;;;3.75;0.50;;;29.90;42.00;;;;;;5050408;28;20434;-58
2022/07/25 03:53:00;;;;;;;0.73;0.43;;;29.90;41.90;;;;;;5050118;28;20678;-57
2022/07/25 03:55:29;;;;;;;1.40;0.85;;;29.90;42.00;;;;;;5050265;28;20051;-58
2022/07/25 03:57:56;;;;;;;0.70;0.32;;;29.90;42.00;;;;;;5050135;28;20036;-58
2022/07/25 04:00:23;;;;;;;1.00;0.50;;;29.90;41.90;;;;;;5049463;28;20032;-58
2022/07/25 04:02:50;;;;;;;0.50;0.30;;;29.90;41.90;;;;;;5049984;28;20127;-58
2022/07/25 04:05:17;;;;;;;0.98;0.75;;;29.90;41.90;;;;;;5048423;28;20510;-58
2022/07/25 04:07:44;;;;;;;0.60;0.30;;;29.80;41.80;;;;;;5050278;28;20641;-58
2022/07/25 04:10:11;;;;;;;0.60;0.20;;;29.90;41.90;;;;;;5042915;28;20055;-58
2022/07/25 04:12:40;;;;;;;0.80;0.40;;;29.80;41.80;;;;;;5050074;28;20072;-57
2022/07/25 04:15:09;;;;;;;0.30;0.30;;;29.90;41.90;;;;;;5049425;28;20116;-58
2022/07/25 04:17:36;;;;;;;0.90;0.30;;;29.80;41.80;;;;;;5049569;28;20048;-58
2022/07/25 04:20:03;;;;;;;0.75;0.43;;;29.80;41.80;;;;;;5049734;28;20040;-58
2022/07/25 04:22:31;;;;;;;0.40;0.40;;;29.80;41.80;;;;;;5049648;28;20049;-57
2022/07/25 04:24:58;;;;;;;0.38;0.30;;;29.80;41.80;;;;;;5049255;28;20033;-58
2022/07/25 04:27:25;;;;;;;0.32;0.30;;;29.80;41.80;;;;;;5049649;28;20114;-58
2022/07/25 04:29:53;;;;;;;0.20;0.10;;;29.80;41.80;;;;;;5049213;28;20529;-57
2022/07/25 04:32:20;;;;;;;0.20;0.20;;;29.80;41.80;;;;;;5049145;28;20055;-58
2022/07/25 04:34:47;;;;;;;1.65;0.20;;;29.70;41.70;;;;;;5049587;28;20047;-58
2022/07/25 04:37:14;;;;;;;1.20;0.30;;;29.70;41.70;;;;;;5049850;28;20047;-58
2022/07/25 04:39:41;;;;;;;0.20;0.20;;;29.70;41.70;;;;;;5049516;28;20051;-57
2022/07/25 04:42:08;;;;;;;0.45;0.40;;;29.70;41.70;;;;;;5045393;28;20131;-58
2022/07/25 04:44:35;;;;;;;0.60;0.30;;;29.70;41.70;;;;;;5044880;28;20155;-59
2022/07/25 04:47:04;;;;;;;0.47;0.10;;;29.60;41.60;;;;;;5047788;28;20136;-58
2022/07/25 04:49:31;;;;;;;0.50;0.40;;;29.60;41.60;;;;;;5049351;28;20051;-59
2022/07/25 04:51:58;;;;;;;0.35;0.20;;;29.60;41.60;;;;;;5049312;28;20064;-57
2022/07/25 04:54:25;;;;;;;1.60;0.15;;;29.60;41.60;;;;;;5049179;28;20120;-59
2022/07/25 04:56:52;;;;;;;0.43;0.43;;;29.60;41.60;;;;;;5048374;28;20041;-59
2022/07/25 04:59:19;;;;;;;3.20;0.20;;;29.60;41.60;;;;;;5049056;28;20542;-58
2022/07/25 05:01:46;;;;;;;0.20;0.20;;;29.60;41.60;;;;;;5048844;28;20123;-59
2022/07/25 05:04:14;;;;;;;0.35;0.10;;;29.60;42.20;;;;;;5048848;28;20045;-59
2022/07/25 05:06:41;;;;;;;0.30;0.30;;;29.60;41.60;;;;;;5049047;28;20124;-59
2022/07/25 05:09:09;;;;;;;1.23;0.57;;;29.60;41.60;;;;;;5048764;28;20067;-59
2022/07/25 05:11:36;;;;;;;0.15;0.13;;;29.60;41.60;;;;;;5048275;28;20118;-58
2022/07/25 05:14:03;;;;;;;0.63;0.30;;;29.60;41.60;;;;;;5048689;28;20036;-58
2022/07/25 05:16:31;;;;;;;0.10;0.10;;;29.50;41.50;;;;;;5048714;28;20139;-58
2022/07/25 05:18:58;;;;;;;1.65;0.20;;;29.60;41.60;;;;;;5048301;28;20041;-57
2022/07/25 05:21:26;;;;;;;1.27;0.45;;;29.60;41.60;;;;;;5047906;28;20053;-58
2022/07/25 05:23:53;;;;;;;1.00;0.10;;;29.50;41.60;;;;;;5038590;28;20411;-60
2022/07/25 05:26:20;;;;;;;0.10;0.10;;;29.50;41.60;;;;;;5047752;28;20082;-59
2022/07/25 05:28:47;;;;;;;0.75;0.13;;;29.60;41.70;;;;;;5048549;28;20080;-58
2022/07/25 05:31:15;;;;;;;1.85;0.10;;;29.60;41.70;;;;;;5048228;28;20076;-58
2022/07/25 05:33:42;;;;;;;0.20;0.17;;;29.50;41.60;;;;;;5047610;28;20045;-59
2022/07/25 05:36:09;;;;;;;1.40;0.32;;;29.50;41.60;;;;;;5047672;28;20053;-59
2022/07/25 05:38:37;;;;;;;0.77;0.10;;;29.50;41.60;;;;;;5047701;28;20045;-58
2022/07/25 05:41:05;;;;;;;2.72;0.30;;;29.50;41.60;;;;;;5047422;28;20051;-59
2022/07/25 05:43:32;;;;;;;1.27;0.10;;;29.50;41.70;;;;;;5047561;28;20412;-59
2022/07/25 05:46:03;;;;;;;1.00;0.10;;;29.50;41.70;;;;;;5047610;28;20247;-58
2022/07/25 05:48:30;;;;;;;0.38;0.20;;;29.50;41.70;;;;;;5047633;28;20557;-59
2022/07/25 05:50:58;;;;;;;0.32;0.20;;;29.50;41.70;;;;;;5046108;28;20073;-58
2022/07/25 05:53:25;;;;;;;0.68;0.10;;;29.50;41.80;;;;;;5047628;28;20144;-58
2022/07/25 05:55:53;;;;;;;1.40;0.65;;;29.50;41.80;;;;;;5047001;28;20045;-59
2022/07/25 05:58:20;;;;;;;1.85;0.10;;;29.50;41.80;;;;;;5048007;28;20033;-59
2022/07/25 06:00:49;;;;;;;0.40;0.10;;;29.50;41.80;;;;;;5047915;28;20055;-59
2022/07/25 06:03:17;;;;;;;2.10;0.10;;;29.50;41.90;;;;;;5047598;28;20045;-59
2022/07/25 06:05:45;;;;;;;0.10;0.10;;;29.50;41.90;;;;;;5047492;28;20146;-57
2022/07/25 06:08:12;;;;;;;0.30;0.10;;;29.50;41.80;;;;;;5046122;28;20041;-59
2022/07/25 06:10:39;;;;;;;0.75;0.20;;;29.50;41.90;;;;;;5047107;28;20045;-58
2022/07/25 06:13:08;;;;;;;1.38;0.10;;;29.60;41.90;;;;;;5047473;28;20138;-59
2022/07/25 06:15:36;;;;;;;0.10;0.10;;;29.50;41.80;;;;;;5047714;28;20045;-59
2022/07/25 06:18:03;;;;;;;1.27;0.10;;;29.60;41.90;;;;;;5047371;28;20059;-59
2022/07/25 06:20:30;;;;;;;0.10;0.10;;;29.60;41.90;;;;;;5047251;28;20045;-59
2022/07/25 06:22:57;;;;;;;0.20;0.10;;;29.60;41.90;;;;;;5047366;28;20077;-59
2022/07/25 06:25:24;;;;;;;0.55;0.10;;;29.60;41.80;;;;;;5046736;28;20051;-59
2022/07/25 06:27:51;;;;;;;0.45;0.10;;;29.60;41.80;;;;;;5047222;28;20128;-59
2022/07/25 06:30:19;;;;;;;0.85;0.10;;;29.60;41.70;;;;;;5040616;28;20140;-59
2022/07/25 06:32:46;;;;;;;1.35;0.65;;;29.70;41.80;;;;;;5040613;28;20427;-56
2022/07/25 06:35:14;;;;;;;2.20;0.10;;;29.70;41.70;;;;;;5040524;28;20356;-59
2022/07/25 06:37:41;;;;;;;0.75;0.20;;;29.80;41.80;;;;;;5040661;28;20049;-59
2022/07/25 06:40:09;;;;;;;0.20;0.20;;;29.70;41.70;;;;;;5040079;28;20037;-59
2022/07/25 06:42:39;;;;;;;0.63;0.10;;;29.80;41.70;;;;;;5040648;28;20051;-59
2022/07/25 06:45:08;;;;;;;0.40;0.10;;;29.80;41.60;;;;;;5042643;28;20060;-59
2022/07/25 06:47:36;;;;;;;4.40;0.20;;;29.80;41.60;;;;;;5040575;28;20464;-60
2022/07/25 06:50:04;;;;;;;2.53;0.10;;;29.80;41.50;;;;;;5050396;28;20411;-59
2022/07/25 06:52:31;;;;;;;1.23;0.10;;;29.80;41.50;;;;;;5050497;28;20475;-59
2022/07/25 06:54:59;;;;;;;0.95;0.20;;;29.80;41.50;;;;;;5050853;28;20408;-59
2022/07/25 06:57:26;;;;;;;1.98;0.20;;;29.90;41.50;;;;;;5050711;28;20157;-59
2022/07/25 06:59:53;;;;;;;1.00;0.10;;;29.90;41.50;;;;;;5051240;28;20511;-60
2022/07/25 07:02:20;;;;;;;1.25;0.47;;;29.90;41.40;;;;;;5044602;28;20064;-59
2022/07/25 07:04:48;;;;;;;3.20;0.10;;;29.90;41.40;;;;;;5044400;28;20045;-59
2022/07/25 07:07:16;;;;;;;0.60;0.30;;;29.90;41.40;;;;;;5044530;28;20467;-59
2022/07/25 07:09:43;;;;;;;2.55;1.38;;;30.00;41.50;;;;;;5044740;28;20098;-59
2022/07/25 07:12:11;;;;;;;2.92;0.10;;;29.90;41.30;;;;;;5043921;28;20123;-58
2022/07/25 07:14:38;;;;;;;1.60;0.13;;;30.00;41.40;;;;;;5042021;28;20044;-57
2022/07/25 07:17:05;;;;;;;0.17;0.10;;;30.00;41.40;;;;;;5049098;28;20048;-59
2022/07/25 07:19:32;;;;;;;0.82;0.20;;;30.00;41.40;;;;;;5049458;28;20041;-57
2022/07/25 07:22:00;;;;;;;0.65;0.20;;;30.00;41.40;;;;;;5049410;28;20067;-58
2022/07/25 07:24:27;;;;;;;0.95;0.20;;;30.00;41.30;;;;;;5047332;28;20068;-59
2022/07/25 07:26:54;;;;;;;0.98;0.13;;;30.10;41.40;;;;;;5049086;28;20128;-57
2022/07/25 07:29:22;;;;;;;0.40;0.10;;;30.10;41.50;;;;;;5050031;28;20040;-59
2022/07/25 07:31:49;;;;;;;0.70;0.20;;;30.10;41.40;;;;;;5050861;28;20059;-56
2022/07/25 07:34:16;;;;;;;0.52;0.40;;;30.10;41.40;;;;;;5050336;28;20457;-57
2022/07/25 07:36:43;;;;;;;0.80;0.10;;;30.10;41.40;;;;;;5049119;28;20048;-59
2022/07/25 07:39:11;;;;;;;1.88;0.30;;;30.10;41.40;;;;;;5051025;28;20037;-59
2022/07/25 07:41:38;;;;;;;2.35;0.10;;;30.10;41.30;;;;;;5050600;28;20072;-58
2022/07/25 07:44:05;;;;;;;0.40;0.20;;;30.10;41.30;;;;;;5050235;28;20029;-59
2022/07/25 07:46:33;;;;;;;0.20;0.15;;;30.10;41.90;;;;;;5050215;28;20099;-60
2022/07/25 07:49:00;;;;;;;0.85;0.10;;;30.10;41.30;;;;;;5050215;28;20041;-59
2022/07/25 07:51:27;;;;;;;0.90;0.22;;;30.10;41.30;;;;;;5049605;28;20503;-60
2022/07/25 07:56:40;;;;;;;1.45;0.43;;;30.10;41.30;;;;;;5049746;28;20044;-57
2022/07/25 07:59:07;;;;;;;0.98;0.10;;;30.20;41.40;;;;;;5049508;28;20045;-59
2022/07/25 08:01:35;;;;;;;0.30;0.10;;;30.20;41.40;;;;;;5050115;28;20045;-59
2022/07/25 08:04:02;;;;;;;1.95;0.30;;;30.20;41.40;;;;;;5049980;28;20063;-59
2022/07/25 08:06:29;;;;;;;4.10;0.20;;;30.20;41.40;;;;;;5049948;28;20053;-59
2022/07/25 08:08:56;;;;;;;1.42;0.75;;;30.20;41.40;;;;;;5050144;28;20060;-59
2022/07/25 08:11:23;;;;;;;3.47;0.10;;;30.20;41.40;;;;;;5049797;28;20076;-59
2022/07/25 08:13:51;;;;;;;1.35;0.10;;;30.20;41.40;;;;;;5049863;28;20037;-59
2022/07/25 08:16:18;;;;;;;1.83;0.10;;;30.20;41.30;;;;;;5049849;28;20068;-59
2022/07/25 08:18:45;;;;;;;0.40;0.10;;;30.30;41.40;;;;;;5049328;28;20052;-59
2022/07/25 08:21:12;;;;;;;0.55;0.28;;;30.30;41.40;;;;;;5043042;28;20053;-57
2022/07/25 08:23:39;;;;;;;1.15;0.20;;;30.30;42.00;;;;;;5043293;28;20114;-57
2022/07/25 08:26:07;;;;;;;0.30;0.10;;;30.30;41.40;;;;;;5048322;28;20045;-60
2022/07/25 08:28:34;;;;;;;1.45;0.10;;;30.30;41.40;;;;;;5049778;28;20118;-59
2022/07/25 08:31:02;;;;;;;0.15;0.10;;;30.30;41.40;;;;;;5049270;28;20135;-60
2022/07/25 08:33:30;;;;;;;2.20;0.20;;;30.30;41.40;;;;;;5049179;28;20052;-58
2022/07/25 08:35:58;;;;;;;0.30;0.10;;;30.30;41.40;;;;;;5049328;28;20045;-59
2022/07/25 08:38:27;;;;;;;0.28;0.10;;;30.30;41.40;;;;;;5049469;28;20051;-59
2022/07/25 08:40:56;;;;;;;1.85;0.20;;;30.40;41.50;;;;;;5049738;28;20563;-59
2022/07/25 08:43:23;;;;;;;0.20;0.20;;;30.40;41.50;;;;;;5043118;28;20148;-60
2022/07/25 08:45:52;;;;;;;0.40;0.25;;;30.40;41.50;;;;;;5042876;28;20041;-60
2022/07/25 08:48:22;;;;;;;1.45;0.10;;;30.40;41.50;;;;;;5042727;28;20043;-59
2022/07/25 08:50:50;;;;;;;1.95;0.20;;;30.40;41.50;;;;;;5042601;28;20144;-60
2022/07/25 08:53:19;;;;;;;2.75;0.52;;;30.40;41.40;;;;;;5048129;28;20593;-59
2022/07/25 08:55:47;;;;;;;0.77;0.28;;;30.40;41.40;;;;;;5048995;28;20041;-59
2022/07/25 08:58:15;;;;;;;0.45;0.20;;;30.40;41.40;;;;;;5049208;28;20052;-58
2022/07/25 09:00:43;;;;;;;0.55;0.55;;;30.40;41.40;;;;;;5048953;28;20518;-59
2022/07/25 09:03:12;;;;;;;0.30;0.20;;;30.40;41.40;;;;;;5047674;28;20055;-60
2022/07/25 09:05:40;;;;;;;2.22;0.25;;;30.50;41.40;;;;;;5048246;28;20041;-59
2022/07/25 09:08:10;;;;;;;1.23;0.20;;;30.40;41.40;;;;;;5049210;28;20049;-59
2022/07/25 09:10:41;;;;;;;2.15;0.30;;;30.50;41.40;;;;;;5048743;28;20045;-59
2022/07/25 09:13:12;;;;;;;0.55;0.20;;;30.50;41.40;;;;;;5048640;28;20139;-59
2022/07/25 09:15:41;;;;;;;1.13;0.20;;;30.50;41.40;;;;;;5048868;28;20102;-59
2022/07/25 09:18:12;;;;;;;0.75;0.10;;;30.50;41.40;;;;;;5048471;28;20128;-60
2022/07/25 09:20:43;;;;;;;0.30;0.10;;;30.50;41.40;;;;;;5048999;28;20037;-59
2022/07/25 09:23:10;;;;;;;1.30;0.20;;;30.60;41.40;;;;;;5049071;28;20565;-59
2022/07/25 09:25:38;;;;;;;0.20;0.20;;;30.50;41.30;;;;;;5048620;28;20115;-58
2022/07/25 09:28:13;;;;;;;0.20;0.10;;;30.50;41.30;;;;;;5048744;28;20051;-58
2022/07/25 09:30:41;;;;;;;3.10;0.10;;;30.60;41.40;;;;;;5048739;28;20518;-58
2022/07/25 09:33:08;;;;;;;0.65;0.10;;;30.60;41.40;;;;;;5047951;28;20068;-59
2022/07/25 09:35:37;;;;;;;0.28;0.10;;;30.60;41.40;;;;;;5045615;28;20072;-59
2022/07/25 09:38:10;;;;;;;0.50;0.10;;;30.60;41.40;;;;;;5048293;28;20057;-58
2022/07/25 09:40:37;;;;;;;0.20;0.13;;;30.60;41.30;;;;;;5048673;28;20182;-59
2022/07/25 09:43:05;;;;;;;0.10;0.10;;;30.60;41.30;;;;;;5048286;28;20068;-58
2022/07/25 09:45:32;;;;;;;0.10;0.10;;;30.60;41.20;;;;;;5047676;28;20048;-58
2022/07/25 09:48:01;;;;;;;0.22;0.22;;;30.60;41.20;;;;;;5047681;28;20052;-57
2022/07/25 09:50:30;;;;;;;1.02;0.20;;;30.60;41.20;;;;;;5048372;28;20132;-59
2022/07/25 09:52:59;;;;;;;0.17;0.10;;;30.60;41.20;;;;;;5048045;28;20048;-59
2022/07/25 09:55:28;;;;;;;1.15;0.68;;;30.70;41.30;;;;;;5048085;28;20033;-58
2022/07/25 09:57:56;;;;;;;0.95;0.10;;;30.60;41.20;;;;;;5048149;28;20064;-58
2022/07/25 10:00:25;;;;;;;0.10;0.10;;;30.70;41.20;;;;;;5048127;28;20075;-59
2022/07/25 10:03:10;;;;;;;0.20;0.10;;;30.70;41.20;;;;;;5047143;28;20068;-58
2022/07/25 10:06:01;;;;;;;2.15;0.10;;;30.70;41.20;;;;;;5042159;28;20041;-59
2022/07/25 10:08:29;;;;;;;0.17;0.13;;;30.70;41.20;;;;;;5047999;28;20041;-59
2022/07/25 10:10:58;;;;;;;0.17;0.17;;;30.70;41.20;;;;;;5047820;28;20495;-60
2022/07/25 10:13:30;;;;;;;1.45;0.30;;;30.70;41.20;;;;;;5048233;28;20130;-59
2022/07/25 10:15:57;;;;;;;0.10;0.10;;;30.80;41.20;;;;;;5047674;28;20045;-59
2022/07/25 10:18:27;;;;;;;0.10;0.10;;;30.80;41.20;;;;;;5047692;28;20045;-59
2022/07/25 10:21:08;;;;;;;0.57;0.10;;;30.80;41.10;;;;;;5047988;28;20056;-58
2022/07/25 10:23:35;;;;;;;0.85;0.10;;;30.80;41.10;;;;;;5047411;28;20150;-58
2022/07/25 10:26:08;;;;;;;0.10;0.10;;;30.80;41.10;;;;;;5047826;28;20037;-58
2022/07/25 10:28:37;;;;;;;1.15;0.10;;;30.80;41.10;;;;;;5041909;28;20041;-59
2022/07/25 10:31:15;;;;;;;0.75;0.10;;;30.80;41.00;;;;;;5047391;28;20053;-58
2022/07/25 10:33:43;;;;;;;0.20;0.10;;;30.80;41.00;;;;;;5047299;28;20320;-59
2022/07/25 10:36:10;;;;;;;0.10;0.10;;;30.80;41.00;;;;;;5047800;28;20040;-58
2022/07/25 10:38:39;;;;;;;1.15;0.10;;;30.80;41.00;;;;;;5047703;28;20045;-58
2022/07/25 10:41:09;;;;;;;0.10;0.10;;;30.80;40.90;;;;;;5046229;28;20045;-58
2022/07/25 10:43:40;;;;;;;0.20;0.10;;;30.80;40.90;;;;;;5047372;28;20090;-58
2022/07/25 10:46:15;;;;;;;0.10;0.10;;;30.80;40.90;;;;;;5047258;28;20041;-59
2022/07/25 10:48:42;;;;;;;0.30;0.10;;;30.90;41.00;;;;;;5047278;28;20124;-58
2022/07/25 10:51:10;;;;;;;0.10;0.10;;;30.80;40.80;;;;;;5047417;28;20037;-58
2022/07/25 10:53:44;;;;;;;0.10;0.10;;;30.80;40.90;;;;;;5047424;28;20102;-58
2022/07/25 10:56:14;;;;;;;0.15;0.10;;;30.80;40.90;;;;;;5046947;28;20045;-58
2022/07/25 10:58:44;;;;;;;0.10;0.10;;;30.90;40.90;;;;;;5047475;28;20037;-58
2022/07/25 11:01:12;;;;;;;0.10;0.00;;;30.80;40.80;;;;;;5046998;28;20041;-58
2022/07/25 11:03:43;;;;;;;1.58;0.10;;;30.90;40.90;;;;;;5046569;28;20041;-58
2022/07/25 11:06:12;;;;;;;0.55;0.10;;;30.90;40.90;;;;;;5047438;28;20419;-58
2022/07/25 11:08:39;;;;;;;0.10;0.10;;;30.90;40.90;;;;;;5047348;28;20136;-56
2022/07/25 11:11:06;;;;;;;0.52;0.10;;;30.90;40.80;;;;;;5047447;28;20060;-58
2022/07/25 11:13:38;;;;;;;0.10;0.10;;;30.90;40.90;;;;;;5046769;28;20090;-58
2022/07/25 11:16:07;;;;;;;0.20;0.10;;;30.90;40.80;;;;;;5046675;28;20120;-58
2022/07/25 11:18:36;;;;;;;0.22;0.22;;;30.90;40.80;;;;;;5046930;28;20053;-58
2022/07/25 11:21:05;;;;;;;1.77;0.10;;;30.90;40.90;;;;;;5047381;28;20056;-59
2022/07/25 11:23:33;;;;;;;0.65;0.10;;;30.90;40.80;;;;;;5046927;28;20095;-58
2022/07/25 11:26:08;;;;;;;0.50;0.10;;;30.90;40.90;;;;;;5047054;28;20040;-58
2022/07/25 11:28:45;;;;;;;0.50;0.20;;;30.90;40.90;;;;;;5046963;28;20051;-58
2022/07/25 11:31:13;;;;;;;0.40;0.10;;;30.90;41.50;;;;;;5046809;28;20056;-58
2022/07/25 11:33:43;;;;;;;0.05;0.00;;;30.90;40.90;;;;;;5046392;28;20052;-58
2022/07/25 11:36:11;;;;;;;0.68;0.10;;;30.90;40.90;;;;;;5050021;28;20049;-58
2022/07/25 11:38:39;;;;;;;0.10;0.00;;;30.90;40.90;;;;;;5050824;28;20037;-58
2022/07/25 11:41:07;;;;;;;0.57;0.57;;;31.00;41.00;;;;;;5047195;28;20068;-58
2022/07/25 11:43:34;;;;;;;0.60;0.10;;;30.90;41.00;;;;;;5050422;28;20040;-58
2022/07/25 11:46:05;;;;;;;0.30;0.28;;;31.00;41.10;;;;;;5050880;28;20127;-57
2022/07/25 11:48:34;;;;;;;0.10;0.00;;;31.00;41.10;;;;;;5048445;28;20052;-59
2022/07/25 11:51:13;;;;;;;0.45;0.10;;;31.00;41.10;;;;;;5046973;28;20434;-58
2022/07/25 11:53:43;;;;;;;0.60;0.10;;;31.00;41.10;;;;;;5050495;28;20053;-58
2022/07/25 11:56:18;;;;;;;0.50;0.20;;;31.00;41.10;;;;;;5050304;28;20037;-58
2022/07/25 11:58:57;;;;;;;1.75;0.10;;;31.00;41.10;;;;;;5050072;28;20053;-58
2022/07/25 12:01:33;;;;;;;0.52;0.10;;;31.00;41.10;;;;;;5044714;28;20044;-59
2022/07/25 12:04:08;;;;;;;0.25;0.10;;;31.00;41.20;;;;;;5049798;28;20084;-58
2022/07/25 12:06:36;;;;;;;1.58;0.75;;;31.10;41.20;;;;;;5050206;28;20044;-58
2022/07/25 12:09:11;;;;;;;0.32;0.30;;;31.00;41.20;;;;;;5050088;28;20051;-58
2022/07/25 12:11:38;;;;;;;0.77;0.30;;;31.10;41.30;;;;;;5049433;28;20048;-58
2022/07/25 12:14:06;;;;;;;0.10;0.10;;;31.00;41.20;;;;;;5050342;28;20041;-59
2022/07/25 12:16:35;;;;;;;1.75;0.20;;;31.10;41.20;;;;;;5049937;28;20124;-59
2022/07/25 12:19:03;;;;;;;2.47;0.10;;;31.10;41.10;;;;;;5049434;28;20037;-58
2022/07/25 12:21:30;;;;;;;0.25;0.10;;;31.10;41.10;;;;;;5049970;28;20068;-59
2022/07/25 12:23:57;;;;;;;1.45;0.10;;;31.10;41.10;;;;;;5050053;28;20048;-58
2022/07/25 12:26:24;;;;;;;0.20;0.20;;;31.10;41.00;;;;;;5049370;28;20037;-59
2022/07/25 12:28:51;;;;;;;1.02;0.95;;;31.10;41.00;;;;;;5049770;28;20045;-59
2022/07/25 12:31:18;;;;;;;0.47;0.10;;;31.20;41.10;;;;;;5050039;28;20152;-58
2022/07/25 12:33:48;;;;;;;0.22;0.10;;;31.20;41.10;;;;;;5049383;28;20056;-58
2022/07/25 12:36:15;;;;;;;1.17;0.10;;;31.20;41.00;;;;;;5049545;28;20053;-58
2022/07/25 12:38:42;;;;;;;0.30;0.10;;;31.20;41.00;;;;;;5049915;28;20111;-59
2022/07/25 12:41:09;;;;;;;0.90;0.10;;;31.20;41.00;;;;;;5049433;28;20315;-60
2022/07/25 12:43:36;;;;;;;0.75;0.20;;;31.20;41.00;;;;;;5049747;28;20047;-59
2022/07/25 12:46:05;;;;;;;5.88;0.10;;;31.30;41.00;;;;;;5048593;28;20076;-58
2022/07/25 12:48:32;;;;;;;0.43;0.10;;;31.20;40.90;;;;;;5049038;28;20862;-59
2022/07/25 12:51:01;;;;;;;0.30;0.10;;;31.30;41.00;;;;;;5049597;28;20671;-59
2022/07/25 12:53:28;;;;;;;0.22;0.10;;;31.30;40.90;;;;;;5049237;28;20049;-59
2022/07/25 12:55:55;;;;;;;0.30;0.10;;;31.30;40.90;;;;;;5048772;28;20312;-58